createdAt,value
2019-05-19T00:01:33.805Z,15.63
2019-05-19T00:04:04.460Z,15.48
2019-05-19T00:06:35.148Z,15.49
2019-05-19T00:09:06.578Z,15.54
2019-05-19T00:11:37.154Z,15.72
2019-05-19T00:14:07.842Z,15.75
2019-05-19T00:16:38.439Z,15.82
2019-05-19T00:19:09.069Z,15.75
2019-05-19T00:21:39.642Z,15.74
2019-05-19T00:24:10.240Z,15.73
2019-05-19T00:26:40.821Z,15.67
2019-05-19T00:29:11.393Z,15.61
2019-05-19T00:31:41.971Z,15.70
2019-05-19T00:34:12.553Z,15.68
2019-05-19T00:36:43.150Z,15.68
2019-05-19T00:39:13.739Z,15.75
2019-05-19T00:41:44.370Z,15.57
2019-05-19T00:44:14.942Z,15.61
2019-05-19T00:46:45.581Z,15.50
2019-05-19T00:49:17.109Z,15.56
2019-05-19T00:51:47.775Z,15.54
2019-05-19T00:54:18.373Z,15.44
2019-05-19T00:56:49.949Z,15.46
2019-05-19T00:59:21.257Z,15.48
2019-05-19T01:01:52.041Z,15.35
2019-05-19T01:04:22.724Z,15.14
2019-05-19T01:06:53.321Z,15.27
2019-05-19T01:09:23.903Z,15.34
2019-05-19T01:11:54.471Z,15.30
2019-05-19T01:14:25.061Z,15.04
2019-05-19T01:16:56.746Z,15.04
2019-05-19T01:19:27.659Z,15.13
2019-05-19T01:22:00.777Z,15.20
2019-05-19T01:24:31.510Z,15.24
2019-05-19T01:27:02.093Z,15.19
2019-05-19T01:29:32.742Z,15.20
2019-05-19T01:32:04.858Z,15.30
2019-05-19T01:34:35.540Z,15.31
2019-05-19T01:37:06.121Z,15.24
2019-05-19T01:39:36.688Z,15.14
2019-05-19T01:42:07.286Z,15.23
2019-05-19T01:44:37.874Z,15.22
2019-05-19T01:47:08.454Z,15.22
2019-05-19T01:49:39.077Z,15.01
2019-05-19T01:52:10.737Z,15.08
2019-05-19T01:54:41.337Z,15.20
2019-05-19T01:57:11.994Z,15.20
2019-05-19T01:59:42.598Z,15.14
2019-05-19T02:02:13.284Z,15.16
2019-05-19T02:04:43.920Z,15.05
2019-05-19T02:07:14.467Z,14.95
2019-05-19T02:09:45.048Z,14.99
2019-05-19T02:12:15.631Z,14.85
2019-05-19T02:14:46.217Z,14.94
2019-05-19T02:17:16.791Z,14.95
2019-05-19T02:19:47.369Z,14.94
2019-05-19T02:22:17.949Z,15.03
2019-05-19T02:24:48.536Z,15.05
2019-05-19T02:27:19.143Z,15.08
2019-05-19T02:29:49.720Z,15.11
2019-05-19T02:32:20.300Z,15.09
2019-05-19T02:34:51.448Z,15.00
2019-05-19T02:37:22.033Z,15.03
2019-05-19T02:39:52.601Z,14.90
2019-05-19T02:42:25.922Z,14.82
2019-05-19T02:44:58.607Z,14.79
2019-05-19T02:47:31.444Z,14.69
2019-05-19T02:50:03.489Z,14.72
2019-05-19T02:52:34.802Z,14.73
2019-05-19T02:55:06.328Z,14.83
2019-05-19T02:57:38.233Z,14.80
2019-05-19T03:00:10.654Z,15.02
2019-05-19T03:02:41.237Z,15.02
2019-05-19T03:05:11.969Z,15.05
2019-05-19T03:07:42.564Z,14.98
2019-05-19T03:10:13.600Z,14.83
2019-05-19T03:12:44.171Z,14.77
2019-05-19T03:15:14.754Z,14.98
2019-05-19T03:17:45.438Z,14.97
2019-05-19T03:20:16.005Z,15.04
2019-05-19T03:22:46.600Z,15.01
2019-05-19T03:25:17.311Z,15.04
2019-05-19T03:27:47.961Z,15.07
2019-05-19T03:30:36.413Z,14.94
2019-05-19T03:33:11.593Z,14.84
2019-05-19T03:35:42.170Z,14.85
2019-05-19T03:38:12.735Z,14.64
2019-05-19T03:40:43.324Z,14.76
2019-05-19T03:43:13.998Z,14.80
2019-05-19T03:45:44.578Z,14.77
2019-05-19T03:48:15.184Z,14.86
2019-05-19T03:50:45.767Z,15.00
2019-05-19T03:53:16.375Z,15.11
2019-05-19T03:55:46.972Z,15.19
2019-05-19T03:58:17.542Z,15.29
2019-05-19T04:00:48.171Z,15.44
2019-05-19T04:03:18.747Z,15.65
2019-05-19T04:05:49.325Z,15.73
2019-05-19T04:08:19.904Z,15.90
2019-05-19T04:10:50.492Z,16.12
2019-05-19T04:13:21.087Z,16.23
2019-05-19T04:15:51.695Z,16.49
2019-05-19T04:18:22.307Z,16.66
2019-05-19T04:20:53.090Z,16.78
2019-05-19T04:23:23.696Z,16.84
2019-05-19T04:25:54.389Z,17.00
2019-05-19T04:28:24.958Z,16.88
2019-05-19T04:30:55.543Z,16.93
2019-05-19T04:33:26.155Z,16.81
2019-05-19T04:35:57.722Z,16.88
2019-05-19T04:38:28.490Z,16.96
2019-05-19T04:40:59.421Z,17.02
2019-05-19T04:43:30.245Z,17.02
2019-05-19T04:46:00.810Z,17.20
2019-05-19T04:48:31.587Z,17.21
2019-05-19T04:51:03.810Z,17.20
2019-05-19T04:53:35.076Z,17.23
2019-05-19T04:56:05.689Z,17.29
2019-05-19T04:58:36.277Z,17.29
2019-05-19T05:01:07.117Z,17.23
2019-05-19T05:03:37.767Z,17.16
2019-05-19T05:06:08.526Z,17.35
2019-05-19T05:08:39.471Z,17.35
2019-05-19T05:11:10.099Z,17.41
2019-05-19T05:13:41.433Z,17.32
2019-05-19T05:16:12.060Z,17.25
2019-05-19T05:18:43.417Z,16.99
2019-05-19T05:21:15.152Z,16.89
2019-05-19T05:23:45.858Z,17.15
2019-05-19T05:26:16.477Z,17.18
2019-05-19T05:28:47.072Z,17.23
2019-05-19T05:31:17.770Z,17.77
2019-05-19T05:33:49.531Z,17.95
2019-05-19T05:36:20.169Z,18.19
2019-05-19T05:38:51.012Z,18.84
2019-05-19T05:41:21.603Z,18.77
2019-05-19T05:43:52.192Z,18.91
2019-05-19T05:46:22.909Z,18.99
2019-05-19T05:48:54.621Z,19.24
2019-05-19T05:51:25.218Z,18.96
2019-05-19T05:53:55.810Z,19.32
2019-05-19T05:56:26.445Z,19.53
2019-05-19T05:58:57.195Z,18.95
2019-05-19T06:01:28.186Z,19.28
2019-05-19T06:03:59.718Z,19.26
2019-05-19T06:06:30.833Z,19.15
2019-05-19T06:09:05.299Z,18.70
2019-05-19T06:11:35.993Z,18.69
2019-05-19T06:14:07.014Z,18.70
2019-05-19T06:16:38.595Z,18.72
2019-05-19T06:19:09.314Z,18.70
2019-05-19T06:21:39.914Z,18.50
2019-05-19T06:24:10.548Z,19.45
2019-05-19T06:26:41.866Z,20.66
2019-05-19T06:29:12.634Z,21.15
2019-05-19T06:31:43.655Z,22.01
2019-05-19T06:34:14.675Z,22.07
2019-05-19T06:36:45.607Z,21.38
2019-05-19T06:39:17.018Z,20.78
2019-05-19T06:41:48.437Z,20.64
2019-05-19T06:44:19.167Z,20.50
2019-05-19T06:46:50.525Z,20.48
2019-05-19T06:49:21.793Z,20.08
2019-05-19T06:51:52.493Z,20.08
2019-05-19T06:54:23.123Z,19.92
2019-05-19T06:56:53.856Z,19.67
2019-05-19T06:59:24.421Z,19.50
2019-05-19T07:01:55.033Z,19.17
2019-05-19T07:04:26.244Z,18.76
2019-05-19T07:06:57.679Z,18.63
2019-05-19T07:09:30.259Z,18.68
2019-05-19T07:12:01.655Z,18.46
2019-05-19T07:14:32.425Z,18.32
2019-05-19T07:17:03.284Z,18.11
2019-05-19T07:19:34.351Z,17.93
2019-05-19T07:22:05.234Z,17.91
2019-05-19T07:24:36.515Z,18.13
2019-05-19T07:27:08.749Z,18.18
2019-05-19T07:29:39.885Z,17.95
2019-05-19T07:32:11.339Z,18.09
2019-05-19T07:34:42.298Z,17.91
2019-05-19T07:37:13.394Z,17.76
2019-05-19T07:39:44.364Z,17.62
2019-05-19T07:42:15.196Z,17.67
2019-05-19T07:44:47.237Z,17.97
2019-05-19T07:47:18.354Z,18.30
2019-05-19T07:49:49.250Z,18.24
2019-05-19T07:52:20.677Z,17.76
2019-05-19T07:54:51.278Z,17.98
2019-05-19T07:57:22.433Z,18.23
2019-05-19T07:59:53.364Z,18.39
2019-05-19T08:02:23.982Z,18.34
2019-05-19T08:04:55.000Z,18.32
2019-05-19T08:07:25.732Z,18.53
2019-05-19T08:09:56.284Z,18.86
2019-05-19T08:12:27.202Z,19.02
2019-05-19T08:14:57.959Z,19.27
2019-05-19T08:17:28.846Z,19.52
2019-05-19T08:19:59.416Z,19.94
2019-05-19T08:22:29.985Z,19.95
2019-05-19T08:25:01.650Z,20.61
2019-05-19T08:27:32.727Z,21.09
2019-05-19T08:30:05.332Z,21.16
2019-05-19T08:32:35.899Z,21.80
2019-05-19T08:35:07.302Z,22.34
2019-05-19T08:37:37.980Z,22.65
2019-05-19T08:40:09.028Z,22.81
2019-05-19T08:42:39.597Z,22.92
2019-05-19T08:45:11.203Z,22.28
2019-05-19T08:47:42.260Z,22.21
2019-05-19T08:50:14.431Z,22.35
2019-05-19T08:52:45.777Z,22.75
2019-05-19T08:55:17.392Z,22.91
2019-05-19T08:57:48.106Z,22.17
2019-05-19T09:00:19.857Z,22.63
2019-05-19T09:02:50.433Z,23.07
2019-05-19T09:05:21.324Z,23.14
2019-05-19T09:07:52.387Z,23.37
2019-05-19T09:10:23.223Z,23.47
2019-05-19T09:12:54.359Z,23.28
2019-05-19T09:15:25.146Z,23.98
2019-05-19T09:17:55.938Z,23.19
2019-05-19T09:20:26.602Z,23.39
2019-05-19T09:22:57.620Z,24.06
2019-05-19T09:25:28.384Z,24.02
2019-05-19T09:27:59.112Z,24.08
2019-05-19T09:30:29.832Z,23.98
2019-05-19T09:33:00.449Z,24.07
2019-05-19T09:35:31.276Z,24.32
2019-05-19T09:38:03.603Z,24.90
2019-05-19T09:40:34.681Z,24.58
2019-05-19T09:43:05.528Z,24.42
2019-05-19T09:45:36.059Z,24.58
2019-05-19T09:48:06.734Z,24.95
2019-05-19T09:50:37.514Z,24.78
2019-05-19T09:53:08.252Z,25.05
2019-05-19T09:55:39.039Z,24.87
2019-05-19T09:58:09.728Z,24.34
2019-05-19T10:00:40.307Z,24.57
2019-05-19T10:03:11.417Z,24.18
2019-05-19T10:05:42.218Z,23.91
2019-05-19T10:08:13.492Z,23.88
2019-05-19T10:10:56.959Z,24.07
2019-05-19T10:13:28.259Z,24.70
2019-05-19T10:15:59.173Z,24.48
2019-05-19T10:18:30.394Z,24.18
2019-05-19T10:21:01.226Z,24.10
2019-05-19T10:23:32.098Z,24.21
2019-05-19T10:26:02.802Z,24.51
2019-05-19T10:28:33.478Z,24.54
2019-05-19T10:31:04.426Z,24.62
2019-05-19T10:33:35.434Z,24.06
2019-05-19T10:36:07.523Z,23.82
2019-05-19T10:38:38.170Z,23.92
2019-05-19T10:41:08.953Z,23.96
2019-05-19T10:43:39.967Z,23.96
2019-05-19T10:46:10.765Z,23.77
2019-05-19T10:48:43.501Z,23.82
2019-05-19T10:51:15.811Z,24.00
2019-05-19T10:53:46.578Z,24.43
2019-05-19T10:56:19.138Z,24.21
2019-05-19T10:58:51.299Z,24.18
2019-05-19T11:01:22.120Z,24.45
2019-05-19T11:03:53.127Z,24.49
2019-05-19T11:06:24.080Z,24.66
2019-05-19T11:08:55.231Z,24.64
2019-05-19T11:11:26.642Z,25.00
2019-05-19T11:13:57.800Z,24.64
2019-05-19T11:16:28.882Z,24.39
2019-05-19T11:19:01.587Z,24.51
2019-05-19T11:21:32.334Z,24.55
2019-05-19T11:24:03.344Z,24.79
2019-05-19T11:26:34.751Z,24.54
2019-05-19T11:29:06.152Z,24.24
2019-05-19T11:31:37.025Z,24.59
2019-05-19T11:34:08.498Z,24.79
2019-05-19T11:36:39.387Z,24.58
2019-05-19T11:39:10.206Z,24.54
2019-05-19T11:41:41.369Z,24.44
2019-05-19T11:44:12.713Z,24.45
2019-05-19T11:46:43.498Z,24.62
2019-05-19T11:49:14.748Z,24.67
2019-05-19T11:51:45.717Z,25.14
2019-05-19T11:54:17.470Z,25.64
2019-05-19T11:56:48.091Z,25.79
2019-05-19T11:59:18.748Z,26.08
2019-05-19T12:01:49.319Z,26.35
2019-05-19T12:04:20.147Z,26.37
2019-05-19T12:06:50.913Z,26.54
2019-05-19T12:09:21.534Z,26.58
2019-05-19T12:11:52.085Z,25.96
2019-05-19T12:14:22.658Z,26.16
2019-05-19T12:16:53.445Z,26.64
2019-05-19T12:19:26.002Z,26.75
2019-05-19T12:21:56.607Z,25.99
2019-05-19T12:24:27.297Z,25.51
2019-05-19T12:26:58.105Z,25.60
2019-05-19T12:29:28.839Z,25.40
2019-05-19T12:32:00.176Z,24.95
2019-05-19T12:34:32.604Z,24.53
2019-05-19T12:37:03.843Z,24.56
2019-05-19T12:39:36.220Z,24.78
2019-05-19T12:42:07.419Z,25.19
2019-05-19T12:44:38.540Z,25.52
2019-05-19T12:47:10.059Z,25.59
2019-05-19T12:49:58.727Z,25.27
2019-05-19T12:52:29.843Z,25.39
2019-05-19T12:55:00.624Z,25.39
2019-05-19T12:57:32.612Z,25.28
2019-05-19T13:00:03.363Z,25.26
2019-05-19T13:02:34.435Z,24.90
2019-05-19T13:05:06.536Z,24.71
2019-05-19T13:07:37.293Z,24.64
2019-05-19T13:10:08.396Z,24.63
2019-05-19T13:12:39.057Z,24.40
2019-05-19T13:15:10.185Z,24.34
2019-05-19T13:17:40.780Z,24.28
2019-05-19T13:20:12.289Z,24.39
2019-05-19T13:22:42.947Z,24.58
2019-05-19T13:25:14.491Z,24.45
2019-05-19T13:27:45.069Z,24.35
2019-05-19T13:30:15.886Z,24.47
2019-05-19T13:32:46.486Z,24.39
2019-05-19T13:35:17.187Z,24.46
2019-05-19T13:37:49.646Z,24.29
2019-05-19T13:40:20.380Z,24.31
2019-05-19T13:42:50.966Z,24.37
2019-05-19T13:45:21.749Z,24.46
2019-05-19T13:47:52.357Z,24.62
2019-05-19T13:50:24.035Z,24.74
2019-05-19T13:52:54.684Z,24.56
2019-05-19T13:55:25.255Z,24.57
2019-05-19T13:57:55.951Z,24.57
2019-05-19T14:00:26.692Z,24.51
2019-05-19T14:02:58.767Z,24.53
2019-05-19T14:05:29.621Z,24.52
2019-05-19T14:08:00.737Z,24.53
2019-05-19T14:10:32.205Z,24.49
2019-05-19T14:13:04.371Z,24.61
2019-05-19T14:15:35.094Z,24.70
2019-05-19T14:18:05.798Z,24.76
2019-05-19T14:20:36.416Z,24.91
2019-05-19T14:23:07.157Z,24.91
2019-05-19T14:25:37.926Z,24.96
2019-05-19T14:28:08.704Z,25.16
2019-05-19T14:30:39.282Z,25.17
2019-05-19T14:33:10.084Z,25.28
2019-05-19T14:35:40.763Z,25.51
2019-05-19T14:38:11.337Z,25.58
2019-05-19T14:40:42.680Z,25.48
2019-05-19T14:43:14.325Z,25.70
2019-05-19T14:45:44.913Z,26.06
2019-05-19T14:48:15.542Z,25.73
2019-05-19T14:50:46.152Z,25.85
2019-05-19T14:53:16.712Z,25.80
2019-05-19T14:55:47.388Z,25.92
2019-05-19T14:58:17.947Z,25.91
2019-05-19T15:00:48.522Z,25.96
2019-05-19T15:03:19.869Z,25.54
2019-05-19T15:05:50.425Z,25.48
2019-05-19T15:08:21.005Z,25.41
2019-05-19T15:10:51.663Z,25.32
2019-05-19T15:13:22.262Z,25.45
2019-05-19T15:15:52.798Z,25.61
2019-05-19T15:18:23.373Z,25.45
2019-05-19T15:20:53.965Z,25.63
2019-05-19T15:23:24.580Z,25.60
2019-05-19T15:25:55.261Z,25.45
2019-05-19T15:28:25.950Z,25.38
2019-05-19T15:30:56.636Z,25.54
2019-05-19T15:33:28.357Z,25.56
2019-05-19T15:35:58.923Z,25.34
2019-05-19T15:38:29.548Z,25.01
2019-05-19T15:41:00.080Z,24.79
2019-05-19T15:43:30.740Z,24.66
2019-05-19T15:46:01.344Z,24.51
2019-05-19T15:48:32.009Z,24.54
2019-05-19T15:51:04.063Z,24.42
2019-05-19T15:53:34.641Z,24.31
2019-05-19T15:56:05.223Z,24.06
2019-05-19T15:58:36.038Z,23.90
2019-05-19T16:01:06.616Z,23.69
2019-05-19T16:03:37.182Z,23.40
2019-05-19T16:06:07.853Z,23.38
2019-05-19T16:08:38.437Z,23.22
2019-05-19T16:11:09.021Z,23.11
2019-05-19T16:13:40.062Z,22.97
2019-05-19T16:16:10.622Z,22.77
2019-05-19T16:18:41.503Z,22.65
2019-05-19T16:21:13.655Z,22.58
2019-05-19T16:23:44.402Z,22.59
2019-05-19T16:26:14.961Z,22.53
2019-05-19T16:28:45.516Z,22.38
2019-05-19T16:31:16.141Z,22.30
2019-05-19T16:33:46.702Z,22.28
2019-05-19T16:36:17.661Z,22.34
2019-05-19T16:38:49.065Z,22.33
2019-05-19T16:41:19.639Z,22.25
2019-05-19T16:43:50.196Z,22.17
2019-05-19T16:46:20.798Z,22.11
2019-05-19T16:48:51.441Z,22.13
2019-05-19T16:51:22.054Z,22.02
2019-05-19T16:53:54.437Z,22.02
2019-05-19T16:56:25.987Z,21.87
2019-05-19T16:58:56.592Z,21.97
2019-05-19T17:01:27.388Z,22.06
2019-05-19T17:04:00.268Z,22.11
2019-05-19T17:06:32.443Z,22.17
2019-05-19T17:09:05.707Z,22.27
2019-05-19T17:11:37.051Z,22.29
2019-05-19T17:14:08.280Z,22.27
2019-05-19T17:16:39.426Z,22.33
2019-05-19T17:19:09.997Z,22.29
2019-05-19T17:21:41.364Z,22.26
2019-05-19T17:24:12.782Z,22.26
2019-05-19T17:26:43.844Z,22.23
2019-05-19T17:29:14.966Z,22.19
2019-05-19T17:31:46.506Z,22.07
2019-05-19T17:34:20.517Z,22.04
2019-05-19T17:36:52.048Z,22.09
2019-05-19T17:39:24.147Z,22.07
2019-05-19T17:41:54.871Z,22.00
2019-05-19T17:44:26.345Z,22.00
2019-05-19T17:46:57.668Z,22.10
2019-05-19T17:49:28.489Z,22.07
2019-05-19T17:52:00.092Z,22.00
2019-05-19T17:54:32.270Z,21.97
2019-05-19T17:57:04.114Z,21.86
2019-05-19T17:59:36.044Z,21.58
2019-05-19T18:02:07.169Z,21.42
2019-05-19T18:04:37.893Z,21.28
2019-05-19T18:07:08.832Z,21.30
2019-05-19T18:09:39.781Z,21.37
2019-05-19T18:12:12.224Z,21.56
2019-05-19T18:14:43.195Z,21.32
2019-05-19T18:17:13.952Z,21.01
2019-05-19T18:19:44.557Z,20.83
2019-05-19T18:22:15.572Z,20.76
2019-05-19T18:24:46.489Z,20.58
2019-05-19T18:27:17.385Z,20.51
2019-05-19T18:29:49.288Z,20.45
2019-05-19T18:32:20.596Z,20.38
2019-05-19T18:34:51.789Z,20.27
2019-05-19T18:37:25.770Z,20.17
2019-05-19T18:39:59.155Z,20.06
2019-05-19T18:42:31.559Z,19.96
2019-05-19T18:45:02.914Z,19.85
2019-05-19T18:47:33.643Z,19.75
2019-05-19T18:50:08.604Z,19.61
2019-05-19T18:52:39.388Z,19.53
2019-05-19T18:55:11.957Z,19.36
2019-05-19T18:57:43.230Z,19.21
2019-05-19T19:00:16.983Z,18.93
2019-05-19T19:02:49.644Z,18.83
2019-05-19T19:05:20.872Z,18.91
2019-05-19T19:07:55.719Z,18.85
2019-05-19T19:10:28.401Z,18.88
2019-05-19T19:12:59.343Z,18.91
2019-05-19T19:15:30.274Z,19.01
2019-05-19T19:18:01.542Z,19.08
2019-05-19T19:20:32.418Z,19.11
2019-05-19T19:23:05.227Z,19.03
2019-05-19T19:25:39.553Z,19.08
2019-05-19T19:28:10.899Z,19.17
2019-05-19T19:30:43.680Z,19.09
2019-05-19T19:33:14.780Z,19.06
2019-05-19T19:35:47.556Z,18.86
2019-05-19T19:38:18.346Z,18.86
2019-05-19T19:40:50.407Z,18.87
2019-05-19T19:43:20.836Z,18.78
2019-05-19T19:45:54.006Z,18.81
2019-05-19T19:48:24.883Z,18.80
2019-05-19T19:50:55.766Z,18.74
2019-05-19T19:53:26.605Z,18.70
2019-05-19T19:55:57.384Z,18.63
2019-05-19T19:58:27.801Z,18.60
2019-05-19T20:01:01.903Z,18.55
2019-05-19T20:03:32.561Z,18.57
2019-05-19T20:06:06.682Z,18.55
2019-05-19T20:08:37.858Z,18.54
2019-05-19T20:11:08.901Z,18.44
2019-05-19T20:13:42.702Z,18.45
2019-05-19T20:16:14.503Z,18.48
2019-05-19T20:18:45.648Z,18.51
2019-05-19T20:21:16.558Z,18.61
2019-05-19T20:23:48.028Z,18.51
2019-05-19T20:26:19.848Z,18.47
2019-05-19T20:28:50.676Z,18.50
2019-05-19T20:31:22.307Z,18.55
2019-05-19T20:33:52.839Z,18.48
2019-05-19T20:36:24.316Z,18.36
2019-05-19T20:38:55.460Z,18.20
2019-05-19T20:41:26.125Z,18.17
2019-05-19T20:43:57.631Z,18.17
2019-05-19T20:46:28.484Z,18.15
2019-05-19T20:49:00.701Z,18.18
2019-05-19T20:51:33.806Z,18.17
2019-05-19T20:54:05.307Z,18.27
2019-05-19T20:56:36.520Z,18.24
2019-05-19T20:59:07.247Z,18.30
2019-05-19T21:01:37.936Z,18.24
2019-05-19T21:04:08.503Z,18.27
2019-05-19T21:06:39.873Z,18.19
2019-05-19T21:09:11.355Z,18.25
2019-05-19T21:11:42.201Z,18.25
2019-05-19T21:14:12.902Z,18.23
2019-05-19T21:16:43.638Z,18.22
2019-05-19T21:19:14.633Z,18.27
2019-05-19T21:21:45.207Z,18.24
2019-05-19T21:24:15.913Z,18.20
2019-05-19T21:26:46.633Z,18.21
2019-05-19T21:29:17.204Z,18.21
2019-05-19T21:31:47.871Z,18.23
2019-05-19T21:34:18.449Z,18.27
2019-05-19T21:36:49.970Z,18.19
2019-05-19T21:39:21.674Z,18.09
2019-05-19T21:41:52.257Z,18.10
2019-05-19T21:44:22.816Z,18.14
2019-05-19T21:46:53.388Z,18.09
2019-05-19T21:49:23.964Z,18.06
2019-05-19T21:51:54.678Z,17.90
2019-05-19T21:54:25.383Z,17.92
2019-05-19T21:56:56.041Z,17.88
2019-05-19T21:59:27.875Z,17.97
2019-05-19T22:01:59.083Z,17.93
2019-05-19T22:04:29.743Z,17.86
2019-05-19T22:07:01.945Z,17.79
2019-05-19T22:09:32.530Z,17.70
2019-05-19T22:12:04.616Z,17.71
2019-05-19T22:14:35.315Z,17.53
2019-05-19T22:17:06.083Z,17.53
2019-05-19T22:19:36.666Z,17.45
2019-05-19T22:22:07.322Z,17.46
2019-05-19T22:24:38.274Z,17.40
2019-05-19T22:27:08.996Z,17.36
2019-05-19T22:29:39.681Z,17.28
2019-05-19T22:32:10.230Z,17.29
2019-05-19T22:34:40.812Z,17.28
2019-05-19T22:37:11.382Z,17.26
2019-05-19T22:39:41.949Z,17.34
2019-05-19T22:42:12.611Z,17.21
2019-05-19T22:44:43.261Z,17.30
2019-05-19T22:47:14.105Z,17.26
2019-05-19T22:49:44.886Z,17.10
2019-05-19T22:52:16.612Z,17.20
2019-05-19T22:54:47.173Z,17.24
2019-05-19T22:57:18.201Z,17.27
2019-05-19T22:59:48.880Z,17.23
2019-05-19T23:02:19.624Z,17.19
2019-05-19T23:04:50.705Z,17.14
2019-05-19T23:07:22.323Z,17.13
2019-05-19T23:09:53.068Z,17.13
2019-05-19T23:12:23.902Z,17.14
2019-05-19T23:14:54.576Z,17.13
2019-05-19T23:17:25.243Z,17.11
2019-05-19T23:19:58.000Z,17.04
2019-05-19T23:22:28.787Z,17.00
2019-05-19T23:24:59.585Z,16.96
2019-05-19T23:27:30.343Z,16.93
2019-05-19T23:30:01.026Z,16.89
2019-05-19T23:32:31.759Z,16.86
2019-05-19T23:35:05.335Z,16.89
2019-05-19T23:37:35.903Z,16.92
2019-05-19T23:40:08.979Z,16.86
2019-05-19T23:42:40.431Z,16.86
2019-05-19T23:45:11.377Z,16.88
2019-05-19T23:47:42.036Z,16.91
2019-05-19T23:50:13.638Z,16.95
2019-05-19T23:52:44.593Z,17.03
2019-05-19T23:55:15.233Z,16.97
2019-05-19T23:57:45.781Z,17.03
